Bowling Green, Ohio
Current Conditions -  °F | °C
As of 6:53 PM on Friday 28 Nov 2014 (Local Time) from KTDZ Reporting Station
Overcast Overcast  
Wind Chill: 19°   Ceiling: 9500
Heat Index: 28°   Visibility: 10mi
Dew Point: 22°   Wind: 10mph
Humidity: 78%   Direction: 140°SE
Pressure: 30.16"   Gusts: NA
Location:  41.38°N, 83.65°W
Report Text: KTDZ 282353Z AUTO 14009KT 10SM OVC095 M02/M06 A3016 RMK AO2 SLP221 60000 T10221056 11022 21028 58018 TSNO
Loading
Personal Weather Stations






























Interactive Weather Map New forecast layout! Learn more

10-Day Weather Forecast

Advertisements
Track Severe Weather on mobile